createdAt,value
2022-11-13T00:00:40.431Z,102154.00
2022-11-13T00:04:01.397Z,102126.06
2022-11-13T00:07:22.225Z,102142.06
2022-11-13T00:10:43.046Z,102139.53
2022-11-13T00:14:04.988Z,102137.03
2022-11-13T00:17:25.606Z,102117.28
2022-11-13T00:20:46.411Z,102128.03
2022-11-13T00:24:07.566Z,102146.28
2022-11-13T00:27:30.655Z,102138.06
2022-11-13T00:30:51.093Z,102141.75
2022-11-13T00:34:41.151Z,102150.53
2022-11-13T00:37:52.591Z,102120.94
2022-11-13T00:41:14.190Z,102148.28
2022-11-13T00:44:35.017Z,102154.81
2022-11-13T00:47:55.633Z,102137.56
2022-11-13T00:51:16.681Z,102140.19
2022-11-13T00:54:37.446Z,102147.56
2022-11-13T00:57:58.293Z,102133.44
2022-11-13T01:01:20.842Z,102123.19
2022-11-13T01:04:42.495Z,102119.56
2022-11-13T01:08:04.011Z,102133.12
2022-11-13T01:11:26.761Z,102128.16
2022-11-13T01:14:47.609Z,102122.63
2022-11-13T01:18:08.635Z,102120.06
2022-11-13T01:21:29.155Z,102126.97
2022-11-13T01:24:49.856Z,102118.97
2022-11-13T01:28:10.670Z,102123.19
2022-11-13T01:31:31.657Z,102127.44
2022-11-13T01:34:52.650Z,102117.16
2022-11-13T01:38:13.692Z,102110.03
2022-11-13T01:41:35.956Z,102114.75
2022-11-13T01:44:59.753Z,102109.81
2022-11-13T01:48:20.847Z,102115.72
2022-11-13T01:51:48.104Z,102110.19
2022-11-13T01:55:12.621Z,102102.47
2022-11-13T01:58:34.347Z,102099.94
2022-11-13T02:01:56.910Z,102083.22
2022-11-13T02:05:17.971Z,102097.06
2022-11-13T02:08:39.165Z,102095.63
2022-11-13T02:12:00.572Z,102078.50
2022-11-13T02:15:23.690Z,102093.56
2022-11-13T02:18:45.419Z,102091.75
2022-11-13T02:22:26.276Z,102088.88
2022-11-13T02:25:50.076Z,102091.03
2022-11-13T02:29:10.793Z,102084.75
2022-11-13T02:32:31.791Z,102087.13
2022-11-13T02:35:53.128Z,102083.72
2022-11-13T02:39:14.448Z,102089.47
2022-11-13T02:42:35.054Z,102065.72
2022-11-13T02:45:55.866Z,102060.78
2022-11-13T02:49:16.689Z,102075.13
2022-11-13T02:52:37.488Z,102080.78
2022-11-13T02:55:58.267Z,102078.66
2022-11-13T02:59:19.002Z,102083.56
2022-11-13T03:02:39.888Z,102082.56
2022-11-13T03:06:00.901Z,102069.31
2022-11-13T03:09:21.812Z,102071.47
2022-11-13T03:12:42.605Z,102083.00
2022-11-13T03:16:08.677Z,102074.19
2022-11-13T03:19:29.507Z,102068.75
2022-11-13T03:22:50.342Z,102063.38
2022-11-13T03:26:13.162Z,102070.84
2022-11-13T03:29:33.758Z,102088.13
2022-11-13T03:32:58.175Z,102094.97
2022-11-13T03:36:18.864Z,102073.72
2022-11-13T03:39:39.703Z,102066.25
2022-11-13T03:43:00.702Z,102076.84
2022-11-13T03:46:21.781Z,102066.19
2022-11-13T03:49:42.414Z,102085.31
2022-11-13T03:53:03.540Z,102077.22
2022-11-13T03:56:24.106Z,102080.69
2022-11-13T03:59:44.924Z,102084.13
2022-11-13T04:03:05.946Z,102080.78
2022-11-13T04:06:26.863Z,102058.59
2022-11-13T04:09:47.576Z,102065.25
2022-11-13T04:13:08.547Z,102079.53
2022-11-13T04:16:29.280Z,102068.03
2022-11-13T04:19:50.064Z,102052.66
2022-11-13T04:23:12.669Z,102079.09
2022-11-13T04:26:33.586Z,102085.06
2022-11-13T04:29:54.327Z,102071.31
2022-11-13T04:33:15.286Z,102064.03
2022-11-13T04:36:36.316Z,102069.09
2022-11-13T04:39:57.221Z,102078.75
2022-11-13T04:43:17.912Z,102067.72
2022-11-13T04:46:38.333Z,102070.94
2022-11-13T04:49:59.283Z,102063.94
2022-11-13T04:53:20.353Z,102054.53
2022-11-13T04:56:41.443Z,102076.78
2022-11-13T05:00:03.633Z,102072.78
2022-11-13T05:03:24.219Z,102075.84
2022-11-13T05:06:44.967Z,102077.47
2022-11-13T05:10:06.060Z,102059.72
2022-11-13T05:13:27.314Z,102061.41
2022-11-13T05:16:49.995Z,102086.50
2022-11-13T05:20:11.514Z,102089.66
2022-11-13T05:23:33.426Z,102085.66
2022-11-13T05:26:54.511Z,102080.44
2022-11-13T05:30:15.631Z,102088.09
2022-11-13T05:33:37.392Z,102089.88
2022-11-13T05:36:58.242Z,102088.56
2022-11-13T05:40:18.927Z,102084.56
2022-11-13T05:43:40.243Z,102066.81
2022-11-13T05:47:01.234Z,102062.03
2022-11-13T05:50:22.487Z,102078.16
2022-11-13T05:53:44.066Z,102073.31
2022-11-13T05:57:04.845Z,102052.81
2022-11-13T06:00:25.779Z,102060.25
2022-11-13T06:03:47.060Z,102066.03
2022-11-13T06:07:07.856Z,102063.25
2022-11-13T06:10:28.661Z,102057.28
2022-11-13T06:13:51.015Z,102064.34
2022-11-13T06:17:11.526Z,102062.81
2022-11-13T06:20:35.446Z,102070.16
2022-11-13T06:23:57.914Z,102069.47
2022-11-13T06:27:18.457Z,102065.34
2022-11-13T06:30:39.355Z,102067.84
2022-11-13T06:34:01.272Z,102075.28
2022-11-13T06:37:22.101Z,102074.44
2022-11-13T06:40:42.951Z,102071.25
2022-11-13T06:44:03.802Z,102081.81
2022-11-13T06:47:24.606Z,102056.91
2022-11-13T06:50:48.528Z,102083.38
2022-11-13T06:54:09.409Z,102070.69
2022-11-13T06:57:30.236Z,102083.44
2022-11-13T07:00:51.990Z,102087.19
2022-11-13T07:04:13.767Z,102078.91
2022-11-13T07:07:34.276Z,102093.59
2022-11-13T07:10:56.602Z,102101.19
2022-11-13T07:14:17.535Z,102099.41
2022-11-13T07:17:38.371Z,102094.81
2022-11-13T07:21:04.426Z,102087.53
2022-11-13T07:24:25.327Z,102091.66
2022-11-13T07:27:46.135Z,102101.78
2022-11-13T07:31:07.604Z,102091.56
2022-11-13T07:34:28.382Z,102094.03
2022-11-13T07:37:49.054Z,102092.34
2022-11-13T07:41:09.785Z,102083.22
2022-11-13T07:44:53.664Z,102087.97
2022-11-13T07:48:11.391Z,102097.09
2022-11-13T07:51:32.512Z,102103.47
2022-11-13T07:54:53.380Z,102102.78
2022-11-13T07:58:14.300Z,102098.03
2022-11-13T08:01:35.185Z,102077.75
2022-11-13T08:04:55.842Z,102086.12
2022-11-13T08:08:16.767Z,102078.44
2022-11-13T08:11:37.679Z,102088.94
2022-11-13T08:14:58.433Z,102093.09
2022-11-13T08:18:19.215Z,102096.75
2022-11-13T08:21:40.136Z,102082.19
2022-11-13T08:25:01.152Z,102099.81
2022-11-13T08:28:22.155Z,102073.81
2022-11-13T08:31:43.019Z,102092.16
2022-11-13T08:35:03.774Z,102089.84
2022-11-13T08:38:24.958Z,102073.16
2022-11-13T08:41:45.512Z,102077.00
2022-11-13T08:45:07.170Z,102091.78
2022-11-13T08:48:28.232Z,102083.19
2022-11-13T08:51:49.423Z,102084.50
2022-11-13T08:55:10.294Z,102077.87
2022-11-13T08:58:31.260Z,102093.69
2022-11-13T09:01:58.246Z,102073.44
2022-11-13T09:05:19.060Z,102075.88
2022-11-13T09:08:39.827Z,102095.91
2022-11-13T09:12:00.946Z,102092.50
2022-11-13T09:15:24.392Z,102092.88
2022-11-13T09:18:45.751Z,102090.09
2022-11-13T09:22:06.563Z,102070.22
2022-11-13T09:25:32.834Z,102091.31
2022-11-13T09:28:56.844Z,102097.25
2022-11-13T09:32:17.756Z,102098.94
2022-11-13T09:35:38.364Z,102094.13
2022-11-13T09:39:00.836Z,102064.88
2022-11-13T09:42:26.542Z,102075.13
2022-11-13T09:45:47.758Z,102066.94
2022-11-13T09:49:11.535Z,102076.09
2022-11-13T09:52:39.533Z,102065.62
2022-11-13T09:56:05.719Z,102072.03
2022-11-13T09:59:39.842Z,102067.22
2022-11-13T10:03:59.368Z,102054.88
2022-11-13T10:07:28.331Z,102043.69
2022-11-13T10:10:56.191Z,102039.13
2022-11-13T10:14:35.536Z,102046.91
2022-11-13T10:18:02.243Z,102041.84
2022-11-13T10:21:40.026Z,102001.97
2022-11-13T10:25:22.574Z,102032.50
2022-11-13T10:28:50.473Z,102025.47
2022-11-13T10:32:31.476Z,102013.16
2022-11-13T10:36:23.355Z,101984.41
2022-11-13T10:39:45.179Z,102007.44
2022-11-13T10:43:15.365Z,101977.91
2022-11-13T10:46:36.501Z,101984.66
2022-11-13T10:49:57.349Z,101990.63
2022-11-13T10:53:19.465Z,101987.25
2022-11-13T10:56:40.226Z,101980.69
2022-11-13T11:00:01.949Z,101977.75
2022-11-13T11:03:24.756Z,101975.22
2022-11-13T11:07:18.477Z,101961.75
2022-11-13T11:10:36.275Z,101972.94
2022-11-13T11:14:29.755Z,101951.84
2022-11-13T11:17:55.444Z,101972.37
2022-11-13T11:21:21.249Z,101948.91
2022-11-13T11:24:58.226Z,101940.41
2022-11-13T11:28:32.104Z,101945.53
2022-11-13T11:32:06.413Z,101934.41
2022-11-13T11:35:41.908Z,101944.41
2022-11-13T11:39:40.768Z,101928.28
2022-11-13T11:43:16.850Z,101944.59
2022-11-13T11:46:37.574Z,101936.91
2022-11-13T11:49:58.375Z,101930.41
2022-11-13T11:53:50.703Z,101902.44
2022-11-13T11:57:45.881Z,101911.50
2022-11-13T12:01:37.598Z,101916.94
2022-11-13T12:05:35.639Z,101898.97
2022-11-13T12:09:41.151Z,101907.16
2022-11-13T12:13:10.742Z,101902.13
2022-11-13T12:16:39.840Z,101891.00
2022-11-13T12:20:23.715Z,101883.97
2022-11-13T12:23:51.185Z,101883.97
2022-11-13T12:27:53.553Z,101871.06
2022-11-13T12:31:16.682Z,101869.16
2022-11-13T12:34:43.350Z,101866.44
2022-11-13T12:38:26.310Z,101849.88
2022-11-13T12:42:13.860Z,101859.34
2022-11-13T12:45:37.446Z,101851.97
2022-11-13T12:48:57.961Z,101847.91
2022-11-13T12:52:22.897Z,101843.72
2022-11-13T12:56:00.333Z,101813.16
2022-11-13T12:59:32.215Z,101828.81
2022-11-13T13:03:16.870Z,101823.22
2022-11-13T13:06:37.481Z,101805.50
2022-11-13T13:10:06.010Z,101804.16
2022-11-13T13:13:35.284Z,101825.38
2022-11-13T13:17:25.733Z,101799.34
2022-11-13T13:21:00.563Z,101814.38
2022-11-13T13:24:27.327Z,101801.75
2022-11-13T13:27:57.865Z,101811.28
2022-11-13T13:31:48.916Z,101795.38
2022-11-13T13:35:23.925Z,101792.91
2022-11-13T13:39:08.471Z,101818.62
2022-11-13T13:42:56.144Z,101797.97
2022-11-13T13:46:22.563Z,101818.62
2022-11-13T13:49:43.690Z,101803.53
2022-11-13T13:53:05.195Z,101805.72
2022-11-13T13:56:26.944Z,101800.75
2022-11-13T13:59:47.846Z,101782.87
2022-11-13T14:03:34.935Z,101792.97
2022-11-13T14:06:58.290Z,101789.37
2022-11-13T14:10:22.220Z,101771.78
2022-11-13T14:13:43.160Z,101790.25
2022-11-13T14:17:04.626Z,101790.50
2022-11-13T14:20:25.737Z,101777.66
2022-11-13T14:23:50.078Z,101770.06
2022-11-13T14:27:15.916Z,101781.81
2022-11-13T14:30:36.977Z,101786.25
2022-11-13T14:34:14.883Z,101786.81
2022-11-13T14:37:38.266Z,101780.13
2022-11-13T14:40:59.778Z,101779.81
2022-11-13T14:44:33.063Z,101783.97
2022-11-13T14:48:00.916Z,101759.41
2022-11-13T14:51:30.923Z,101781.69
2022-11-13T14:55:18.043Z,101781.88
2022-11-13T14:58:47.337Z,101768.72
2022-11-13T15:02:12.863Z,101777.34
2022-11-13T15:05:33.849Z,101771.50
2022-11-13T15:08:58.117Z,101771.75
2022-11-13T15:12:19.195Z,101767.22
2022-11-13T15:15:40.333Z,101773.66
2022-11-13T15:19:20.535Z,101774.47
2022-11-13T15:22:44.231Z,101770.62
2022-11-13T15:26:04.998Z,101747.53
2022-11-13T15:29:25.995Z,101741.66
2022-11-13T15:32:49.073Z,101761.47
2022-11-13T15:36:10.081Z,101753.91
2022-11-13T15:39:30.751Z,101756.09
2022-11-13T15:42:51.880Z,101759.69
2022-11-13T15:46:17.962Z,101764.16
2022-11-13T15:49:40.679Z,101748.41
2022-11-13T15:53:12.346Z,101757.62
2022-11-13T15:56:33.256Z,101742.47
2022-11-13T15:59:54.238Z,101742.47
2022-11-13T16:03:14.831Z,101755.56
2022-11-13T16:06:36.403Z,101757.84
2022-11-13T16:09:56.856Z,101758.63
2022-11-13T16:13:17.765Z,101767.75
2022-11-13T16:16:43.848Z,101761.53
2022-11-13T16:20:07.631Z,101768.72
2022-11-13T16:23:28.497Z,101767.00
2022-11-13T16:26:54.310Z,101756.66
2022-11-13T16:30:20.575Z,101757.50
2022-11-13T16:33:41.414Z,101756.34
2022-11-13T16:37:02.182Z,101734.53
2022-11-13T16:40:26.184Z,101752.91
2022-11-13T16:43:46.889Z,101752.47
2022-11-13T16:47:22.458Z,101752.34
2022-11-13T16:50:43.499Z,101743.97
2022-11-13T16:54:04.416Z,101728.53
2022-11-13T16:57:25.670Z,101742.47
2022-11-13T17:00:46.472Z,101737.44
2022-11-13T17:04:07.451Z,101741.28
2022-11-13T17:07:28.327Z,101748.22
2022-11-13T17:10:59.014Z,101753.69
2022-11-13T17:14:19.764Z,101734.87
2022-11-13T17:17:40.632Z,101754.28
2022-11-13T17:21:01.405Z,101756.31
2022-11-13T17:24:22.322Z,101744.22
2022-11-13T17:27:43.630Z,101755.41
2022-11-13T17:31:10.233Z,101745.66
2022-11-13T17:34:31.494Z,101743.06
2022-11-13T17:37:52.432Z,101740.22
2022-11-13T17:41:16.341Z,101734.34
2022-11-13T17:44:37.414Z,101716.66
2022-11-13T17:47:58.910Z,101723.94
2022-11-13T17:51:22.580Z,101734.00
2022-11-13T17:54:43.412Z,101728.44
2022-11-13T17:58:04.493Z,101728.22
2022-11-13T18:01:25.324Z,101726.78
2022-11-13T18:04:46.082Z,101717.91
2022-11-13T18:08:06.747Z,101712.38
2022-11-13T18:11:29.281Z,101730.16
2022-11-13T18:14:52.563Z,101740.34
2022-11-13T18:18:13.483Z,101740.06
2022-11-13T18:21:36.311Z,101737.72
2022-11-13T18:24:57.437Z,101740.31
2022-11-13T18:28:18.227Z,101740.19
2022-11-13T18:31:38.899Z,101728.94
2022-11-13T18:35:03.791Z,101728.13
2022-11-13T18:38:24.630Z,101752.13
2022-11-13T18:41:45.359Z,101757.53
2022-11-13T18:45:06.885Z,101742.06
2022-11-13T18:48:32.936Z,101758.03
2022-11-13T18:51:57.864Z,101758.38
2022-11-13T18:55:18.635Z,101767.91
2022-11-13T18:58:41.148Z,101747.16
2022-11-13T19:02:01.993Z,101755.06
2022-11-13T19:05:23.043Z,101761.09
2022-11-13T19:08:44.323Z,101757.12
2022-11-13T19:12:05.187Z,101749.13
2022-11-13T19:15:25.656Z,101735.50
2022-11-13T19:19:11.171Z,101753.47
2022-11-13T19:22:32.515Z,101751.00
2022-11-13T19:25:53.138Z,101754.06
2022-11-13T19:29:14.176Z,101757.56
2022-11-13T19:33:05.261Z,101747.75
2022-11-13T19:36:17.925Z,101750.53
2022-11-13T19:39:38.843Z,101747.91
2022-11-13T19:42:59.490Z,101725.81
2022-11-13T19:46:21.031Z,101745.63
2022-11-13T19:49:41.539Z,101741.22
2022-11-13T19:53:02.497Z,101750.47
2022-11-13T19:56:24.797Z,101728.87
2022-11-13T19:59:45.745Z,101758.19
2022-11-13T20:03:07.957Z,101741.72
2022-11-13T20:06:31.433Z,101765.28
2022-11-13T20:09:51.932Z,101770.44
2022-11-13T20:13:12.989Z,101769.34
2022-11-13T20:16:33.415Z,101750.34
2022-11-13T20:19:54.099Z,101771.34
2022-11-13T20:23:14.958Z,101764.47
2022-11-13T20:26:35.854Z,101761.47
2022-11-13T20:29:57.954Z,101767.97
2022-11-13T20:33:22.578Z,101762.44
2022-11-13T20:36:44.409Z,101752.81
2022-11-13T20:40:05.290Z,101756.31
2022-11-13T20:43:25.969Z,101736.72
2022-11-13T20:46:47.084Z,101759.94
2022-11-13T20:50:08.262Z,101760.13
2022-11-13T20:53:29.268Z,101758.34
2022-11-13T20:56:49.922Z,101750.62
2022-11-13T21:00:11.283Z,101750.72
2022-11-13T21:03:37.128Z,101743.31
2022-11-13T21:07:01.027Z,101753.66
2022-11-13T21:10:21.947Z,101760.66
2022-11-13T21:13:42.972Z,101759.69
2022-11-13T21:17:03.982Z,101763.69
2022-11-13T21:20:24.799Z,101731.41
2022-11-13T21:23:47.203Z,101757.00
2022-11-13T21:27:09.703Z,101753.00
2022-11-13T21:30:30.718Z,101761.03
2022-11-13T21:33:51.267Z,101765.41
2022-11-13T21:37:14.269Z,101756.91
2022-11-13T21:40:35.058Z,101733.94
2022-11-13T21:44:03.123Z,101754.88
2022-11-13T21:47:24.181Z,101736.00
2022-11-13T21:50:44.690Z,101742.09
2022-11-13T21:54:06.684Z,101736.38
2022-11-13T21:57:27.568Z,101751.78
2022-11-13T22:00:48.529Z,101751.13
2022-11-13T22:04:09.433Z,101748.13
2022-11-13T22:07:30.318Z,101746.78
2022-11-13T22:10:50.943Z,101739.47
2022-11-13T22:14:12.215Z,101744.66
2022-11-13T22:17:33.786Z,101747.53
2022-11-13T22:21:00.182Z,101748.16
2022-11-13T22:24:21.083Z,101720.63
2022-11-13T22:27:41.968Z,101719.53
2022-11-13T22:31:03.737Z,101746.91
2022-11-13T22:34:24.397Z,101734.56
2022-11-13T22:37:45.213Z,101731.06
2022-11-13T22:41:23.240Z,101736.81
2022-11-13T22:44:55.432Z,101740.69
2022-11-13T22:48:16.607Z,101703.06
2022-11-13T22:51:41.114Z,101722.56
2022-11-13T22:55:01.982Z,101718.84
2022-11-13T22:58:22.857Z,101720.06
2022-11-13T23:01:43.910Z,101706.12
2022-11-13T23:05:05.121Z,101702.88
2022-11-13T23:08:25.622Z,101686.06
2022-11-13T23:11:46.445Z,101698.91
2022-11-13T23:15:07.975Z,101679.44
2022-11-13T23:18:32.622Z,101669.00
2022-11-13T23:21:53.788Z,101689.19
2022-11-13T23:25:14.621Z,101684.75
2022-11-13T23:28:36.134Z,101675.59
2022-11-13T23:31:56.743Z,101668.41
2022-11-13T23:35:17.544Z,101676.47
2022-11-13T23:38:38.364Z,101677.78
2022-11-13T23:41:58.855Z,101658.59
2022-11-13T23:45:19.771Z,101687.16
2022-11-13T23:48:40.658Z,101681.59
2022-11-13T23:52:01.536Z,101675.81
2022-11-13T23:55:23.579Z,101686.00
2022-11-13T23:58:44.599Z,101659.44
